sensor_id;sensor_type;location;lat;lon;timestamp;P1;durP1;ratioP1;P2;durP2;ratioP2
51987;SDS011;38003;52.012;4.346;2023-07-02T00:00:06;7.50;;;3.83;;
51987;SDS011;38003;52.012;4.346;2023-07-02T00:02:35;8.13;;;4.10;;
51987;SDS011;38003;52.012;4.346;2023-07-02T00:05:04;9.90;;;4.30;;
51987;SDS011;38003;52.012;4.346;2023-07-02T00:07:32;9.70;;;5.07;;
51987;SDS011;38003;52.012;4.346;2023-07-02T00:10:03;12.27;;;5.13;;
51987;SDS011;38003;52.012;4.346;2023-07-02T00:12:32;14.40;;;5.73;;
51987;SDS011;38003;52.012;4.346;2023-07-02T00:15:01;12.27;;;6.40;;
51987;SDS011;38003;52.012;4.346;2023-07-02T00:17:29;13.83;;;6.47;;
51987;SDS011;38003;52.012;4.346;2023-07-02T00:19:57;18.30;;;7.00;;
51987;SDS011;38003;52.012;4.346;2023-07-02T00:22:29;13.87;;;6.67;;
51987;SDS011;38003;52.012;4.346;2023-07-02T00:24:57;15.50;;;6.10;;
51987;SDS011;38003;52.012;4.346;2023-07-02T00:27:26;11.90;;;6.60;;
51987;SDS011;38003;52.012;4.346;2023-07-02T00:29:56;14.07;;;6.87;;
51987;SDS011;38003;52.012;4.346;2023-07-02T00:32:24;15.43;;;7.03;;
51987;SDS011;38003;52.012;4.346;2023-07-02T00:34:52;14.17;;;5.93;;
51987;SDS011;38003;52.012;4.346;2023-07-02T00:37:20;15.73;;;7.10;;
51987;SDS011;38003;52.012;4.346;2023-07-02T00:39:48;14.30;;;6.77;;
51987;SDS011;38003;52.012;4.346;2023-07-02T00:42:18;14.90;;;7.43;;
51987;SDS011;38003;52.012;4.346;2023-07-02T00:44:47;12.93;;;6.87;;
51987;SDS011;38003;52.012;4.346;2023-07-02T00:47:20;15.30;;;7.60;;
51987;SDS011;38003;52.012;4.346;2023-07-02T00:49:48;15.93;;;7.40;;
51987;SDS011;38003;52.012;4.346;2023-07-02T00:52:16;14.33;;;7.10;;
51987;SDS011;38003;52.012;4.346;2023-07-02T00:54:46;17.30;;;6.80;;
51987;SDS011;38003;52.012;4.346;2023-07-02T00:57:15;13.63;;;6.50;;
51987;SDS011;38003;52.012;4.346;2023-07-02T00:59:43;14.03;;;7.07;;
51987;SDS011;38003;52.012;4.346;2023-07-02T01:02:11;14.20;;;7.47;;
51987;SDS011;38003;52.012;4.346;2023-07-02T01:04:41;13.30;;;6.37;;
51987;SDS011;38003;52.012;4.346;2023-07-02T01:07:16;15.40;;;6.70;;
51987;SDS011;38003;52.012;4.346;2023-07-02T01:09:44;16.73;;;6.40;;
51987;SDS011;38003;52.012;4.346;2023-07-02T01:12:12;17.17;;;6.63;;
51987;SDS011;38003;52.012;4.346;2023-07-02T01:14:42;13.13;;;6.20;;
51987;SDS011;38003;52.012;4.346;2023-07-02T01:17:11;13.83;;;6.33;;
51987;SDS011;38003;52.012;4.346;2023-07-02T01:19:43;15.40;;;6.73;;
51987;SDS011;38003;52.012;4.346;2023-07-02T01:22:17;13.97;;;7.00;;
51987;SDS011;38003;52.012;4.346;2023-07-02T01:24:46;15.97;;;6.43;;
51987;SDS011;38003;52.012;4.346;2023-07-02T01:27:15;16.47;;;7.07;;
51987;SDS011;38003;52.012;4.346;2023-07-02T01:29:43;13.67;;;6.60;;
51987;SDS011;38003;52.012;4.346;2023-07-02T01:32:13;15.80;;;6.93;;
51987;SDS011;38003;52.012;4.346;2023-07-02T01:34:43;16.13;;;6.90;;
51987;SDS011;38003;52.012;4.346;2023-07-02T01:37:14;15.20;;;6.80;;
51987;SDS011;38003;52.012;4.346;2023-07-02T01:39:44;18.60;;;7.47;;
51987;SDS011;38003;52.012;4.346;2023-07-02T01:42:13;16.87;;;7.17;;
51987;SDS011;38003;52.012;4.346;2023-07-02T01:44:43;18.30;;;7.67;;
51987;SDS011;38003;52.012;4.346;2023-07-02T01:47:11;18.40;;;7.70;;
51987;SDS011;38003;52.012;4.346;2023-07-02T01:49:39;17.07;;;7.10;;
51987;SDS011;38003;52.012;4.346;2023-07-02T01:52:09;12.70;;;6.77;;
51987;SDS011;38003;52.012;4.346;2023-07-02T01:54:37;16.80;;;7.70;;
51987;SDS011;38003;52.012;4.346;2023-07-02T01:57:06;20.10;;;6.90;;
51987;SDS011;38003;52.012;4.346;2023-07-02T01:59:34;19.80;;;7.40;;
51987;SDS011;38003;52.012;4.346;2023-07-02T02:02:02;15.83;;;7.20;;
51987;SDS011;38003;52.012;4.346;2023-07-02T02:04:31;16.27;;;6.87;;
51987;SDS011;38003;52.012;4.346;2023-07-02T02:06:59;14.07;;;6.80;;
51987;SDS011;38003;52.012;4.346;2023-07-02T02:09:29;15.30;;;7.43;;
51987;SDS011;38003;52.012;4.346;2023-07-02T02:11:58;17.30;;;7.90;;
51987;SDS011;38003;52.012;4.346;2023-07-02T02:14:27;14.63;;;7.70;;
51987;SDS011;38003;52.012;4.346;2023-07-02T02:16:55;16.40;;;7.17;;
51987;SDS011;38003;52.012;4.346;2023-07-02T02:19:23;19.47;;;7.87;;
51987;SDS011;38003;52.012;4.346;2023-07-02T02:21:51;15.20;;;7.40;;
51987;SDS011;38003;52.012;4.346;2023-07-02T02:24:20;16.33;;;7.80;;
51987;SDS011;38003;52.012;4.346;2023-07-02T02:26:49;17.47;;;7.73;;
51987;SDS011;38003;52.012;4.346;2023-07-02T02:29:17;20.20;;;7.03;;
51987;SDS011;38003;52.012;4.346;2023-07-02T02:31:46;17.73;;;7.37;;
51987;SDS011;38003;52.012;4.346;2023-07-02T02:34:14;18.30;;;7.90;;
51987;SDS011;38003;52.012;4.346;2023-07-02T02:36:42;22.37;;;7.93;;
51987;SDS011;38003;52.012;4.346;2023-07-02T02:39:11;18.27;;;7.63;;
51987;SDS011;38003;52.012;4.346;2023-07-02T02:41:40;18.47;;;7.40;;
51987;SDS011;38003;52.012;4.346;2023-07-02T02:44:10;20.23;;;7.30;;
51987;SDS011;38003;52.012;4.346;2023-07-02T02:46:38;18.67;;;6.80;;
51987;SDS011;38003;52.012;4.346;2023-07-02T02:49:06;22.43;;;7.73;;
51987;SDS011;38003;52.012;4.346;2023-07-02T02:51:34;18.43;;;7.53;;
51987;SDS011;38003;52.012;4.346;2023-07-02T02:54:02;22.07;;;7.37;;
51987;SDS011;38003;52.012;4.346;2023-07-02T02:56:31;22.37;;;7.90;;
51987;SDS011;38003;52.012;4.346;2023-07-02T02:58:59;18.20;;;7.37;;
51987;SDS011;38003;52.012;4.346;2023-07-02T03:01:28;18.20;;;6.63;;
51987;SDS011;38003;52.012;4.346;2023-07-02T03:03:58;19.83;;;7.63;;
51987;SDS011;38003;52.012;4.346;2023-07-02T03:06:26;16.83;;;6.97;;
51987;SDS011;38003;52.012;4.346;2023-07-02T03:08:54;19.97;;;7.30;;
51987;SDS011;38003;52.012;4.346;2023-07-02T03:11:22;17.33;;;6.73;;
51987;SDS011;38003;52.012;4.346;2023-07-02T03:13:51;19.00;;;6.97;;
51987;SDS011;38003;52.012;4.346;2023-07-02T03:16:19;17.50;;;6.80;;
51987;SDS011;38003;52.012;4.346;2023-07-02T03:18:49;18.40;;;7.07;;
51987;SDS011;38003;52.012;4.346;2023-07-02T03:21:18;20.77;;;7.23;;
51987;SDS011;38003;52.012;4.346;2023-07-02T03:23:46;17.03;;;7.23;;
51987;SDS011;38003;52.012;4.346;2023-07-02T03:26:14;16.17;;;6.83;;
51987;SDS011;38003;52.012;4.346;2023-07-02T03:28:42;18.87;;;6.60;;
51987;SDS011;38003;52.012;4.346;2023-07-02T03:31:11;18.73;;;7.17;;
51987;SDS011;38003;52.012;4.346;2023-07-02T03:33:39;18.03;;;6.93;;
51987;SDS011;38003;52.012;4.346;2023-07-02T03:36:08;19.67;;;7.53;;
51987;SDS011;38003;52.012;4.346;2023-07-02T03:38:37;15.60;;;7.17;;
51987;SDS011;38003;52.012;4.346;2023-07-02T03:41:05;14.77;;;6.73;;
51987;SDS011;38003;52.012;4.346;2023-07-02T03:43:33;16.80;;;6.80;;
51987;SDS011;38003;52.012;4.346;2023-07-02T03:46:01;16.47;;;6.53;;
51987;SDS011;38003;52.012;4.346;2023-07-02T03:48:29;14.77;;;6.57;;
51987;SDS011;38003;52.012;4.346;2023-07-02T03:50:58;16.60;;;6.63;;
51987;SDS011;38003;52.012;4.346;2023-07-02T03:53:27;15.13;;;6.47;;
51987;SDS011;38003;52.012;4.346;2023-07-02T03:55:55;13.93;;;6.53;;
51987;SDS011;38003;52.012;4.346;2023-07-02T03:58:24;13.50;;;6.20;;
51987;SDS011;38003;52.012;4.346;2023-07-02T04:00:52;14.57;;;6.17;;
51987;SDS011;38003;52.012;4.346;2023-07-02T04:03:20;14.63;;;6.37;;
51987;SDS011;38003;52.012;4.346;2023-07-02T04:05:48;12.23;;;5.60;;
51987;SDS011;38003;52.012;4.346;2023-07-02T04:08:17;16.10;;;6.37;;
51987;SDS011;38003;52.012;4.346;2023-07-02T04:10:48;16.27;;;6.03;;
51987;SDS011;38003;52.012;4.346;2023-07-02T04:13:16;14.33;;;5.47;;
51987;SDS011;38003;52.012;4.346;2023-07-02T04:15:44;13.30;;;6.00;;
51987;SDS011;38003;52.012;4.346;2023-07-02T04:18:13;15.50;;;6.33;;
51987;SDS011;38003;52.012;4.346;2023-07-02T04:20:41;12.57;;;6.30;;
51987;SDS011;38003;52.012;4.346;2023-07-02T04:23:09;13.97;;;6.57;;
51987;SDS011;38003;52.012;4.346;2023-07-02T04:25:37;14.80;;;5.80;;
51987;SDS011;38003;52.012;4.346;2023-07-02T04:28:27;15.33;;;6.17;;
51987;SDS011;38003;52.012;4.346;2023-07-02T04:30:55;13.13;;;5.63;;
51987;SDS011;38003;52.012;4.346;2023-07-02T04:33:23;13.67;;;6.10;;
51987;SDS011;38003;52.012;4.346;2023-07-02T04:35:51;15.90;;;5.80;;
51987;SDS011;38003;52.012;4.346;2023-07-02T04:38:20;15.73;;;6.10;;
51987;SDS011;38003;52.012;4.346;2023-07-02T04:40:48;13.47;;;5.43;;
51987;SDS011;38003;52.012;4.346;2023-07-02T04:43:18;13.60;;;5.53;;
51987;SDS011;38003;52.012;4.346;2023-07-02T04:45:48;10.47;;;5.27;;
51987;SDS011;38003;52.012;4.346;2023-07-02T04:48:16;11.43;;;5.17;;
51987;SDS011;38003;52.012;4.346;2023-07-02T04:50:44;14.17;;;5.20;;
51987;SDS011;38003;52.012;4.346;2023-07-02T04:53:13;12.43;;;5.20;;
51987;SDS011;38003;52.012;4.346;2023-07-02T04:55:41;13.80;;;5.57;;
51987;SDS011;38003;52.012;4.346;2023-07-02T04:58:09;13.40;;;6.03;;
51987;SDS011;38003;52.012;4.346;2023-07-02T05:00:38;12.63;;;5.37;;
51987;SDS011;38003;52.012;4.346;2023-07-02T05:03:07;13.47;;;5.40;;
51987;SDS011;38003;52.012;4.346;2023-07-02T05:05:36;13.70;;;5.43;;
51987;SDS011;38003;52.012;4.346;2023-07-02T05:08:04;15.27;;;5.87;;
51987;SDS011;38003;52.012;4.346;2023-07-02T05:10:32;11.03;;;4.97;;
51987;SDS011;38003;52.012;4.346;2023-07-02T05:13:01;15.37;;;5.37;;
51987;SDS011;38003;52.012;4.346;2023-07-02T05:15:29;13.80;;;5.63;;
51987;SDS011;38003;52.012;4.346;2023-07-02T05:17:57;13.23;;;5.40;;
51987;SDS011;38003;52.012;4.346;2023-07-02T05:20:27;16.10;;;5.60;;
51987;SDS011;38003;52.012;4.346;2023-07-02T05:22:55;14.83;;;6.17;;
51987;SDS011;38003;52.012;4.346;2023-07-02T05:25:23;14.30;;;5.63;;
51987;SDS011;38003;52.012;4.346;2023-07-02T05:27:51;11.50;;;6.20;;
51987;SDS011;38003;52.012;4.346;2023-07-02T05:30:20;13.17;;;5.97;;
51987;SDS011;38003;52.012;4.346;2023-07-02T05:32:48;11.43;;;5.37;;
51987;SDS011;38003;52.012;4.346;2023-07-02T05:35:16;15.43;;;5.43;;
51987;SDS011;38003;52.012;4.346;2023-07-02T05:37:46;13.63;;;5.40;;
51987;SDS011;38003;52.012;4.346;2023-07-02T05:40:14;12.03;;;5.63;;
51987;SDS011;38003;52.012;4.346;2023-07-02T05:42:43;12.37;;;5.63;;
51987;SDS011;38003;52.012;4.346;2023-07-02T05:45:11;12.87;;;5.43;;
51987;SDS011;38003;52.012;4.346;2023-07-02T05:47:39;13.80;;;5.47;;
51987;SDS011;38003;52.012;4.346;2023-07-02T05:50:08;14.77;;;5.47;;
51987;SDS011;38003;52.012;4.346;2023-07-02T05:52:36;12.13;;;5.50;;
51987;SDS011;38003;52.012;4.346;2023-07-02T05:55:07;12.77;;;5.20;;
51987;SDS011;38003;52.012;4.346;2023-07-02T05:57:37;13.83;;;5.63;;
51987;SDS011;38003;52.012;4.346;2023-07-02T06:00:05;12.67;;;5.80;;
51987;SDS011;38003;52.012;4.346;2023-07-02T06:02:34;14.73;;;5.37;;
51987;SDS011;38003;52.012;4.346;2023-07-02T06:05:02;12.43;;;5.20;;
51987;SDS011;38003;52.012;4.346;2023-07-02T06:07:31;16.40;;;5.67;;
51987;SDS011;38003;52.012;4.346;2023-07-02T06:09:59;12.83;;;5.10;;
51987;SDS011;38003;52.012;4.346;2023-07-02T06:12:29;11.97;;;5.40;;
51987;SDS011;38003;52.012;4.346;2023-07-02T06:14:57;10.57;;;5.33;;
51987;SDS011;38003;52.012;4.346;2023-07-02T06:17:25;10.40;;;5.37;;
51987;SDS011;38003;52.012;4.346;2023-07-02T06:19:53;15.50;;;5.53;;
51987;SDS011;38003;52.012;4.346;2023-07-02T06:22:22;12.03;;;5.50;;
51987;SDS011;38003;52.012;4.346;2023-07-02T06:24:50;12.63;;;5.20;;
51987;SDS011;38003;52.012;4.346;2023-07-02T06:27:18;17.20;;;5.83;;
51987;SDS011;38003;52.012;4.346;2023-07-02T06:29:48;12.93;;;5.37;;
51987;SDS011;38003;52.012;4.346;2023-07-02T06:32:17;15.77;;;5.33;;
51987;SDS011;38003;52.012;4.346;2023-07-02T06:34:46;17.30;;;5.47;;
51987;SDS011;38003;52.012;4.346;2023-07-02T06:37:14;15.13;;;5.43;;
51987;SDS011;38003;52.012;4.346;2023-07-02T06:39:42;15.27;;;6.03;;
51987;SDS011;38003;52.012;4.346;2023-07-02T06:42:10;12.37;;;5.23;;
51987;SDS011;38003;52.012;4.346;2023-07-02T06:44:38;12.33;;;5.37;;
51987;SDS011;38003;52.012;4.346;2023-07-02T06:47:08;13.73;;;5.00;;
51987;SDS011;38003;52.012;4.346;2023-07-02T06:49:36;14.00;;;5.30;;
51987;SDS011;38003;52.012;4.346;2023-07-02T06:52:05;10.63;;;5.07;;
51987;SDS011;38003;52.012;4.346;2023-07-02T06:54:33;12.43;;;5.03;;
51987;SDS011;38003;52.012;4.346;2023-07-02T06:57:01;14.57;;;5.60;;
51987;SDS011;38003;52.012;4.346;2023-07-02T06:59:29;11.00;;;4.87;;
51987;SDS011;38003;52.012;4.346;2023-07-02T07:01:58;11.50;;;5.17;;
51987;SDS011;38003;52.012;4.346;2023-07-02T07:04:27;11.80;;;5.33;;
51987;SDS011;38003;52.012;4.346;2023-07-02T07:06:56;11.40;;;4.67;;
51987;SDS011;38003;52.012;4.346;2023-07-02T07:09:24;13.67;;;5.30;;
51987;SDS011;38003;52.012;4.346;2023-07-02T07:11:52;12.80;;;4.67;;
51987;SDS011;38003;52.012;4.346;2023-07-02T07:14:21;13.47;;;5.00;;
51987;SDS011;38003;52.012;4.346;2023-07-02T07:16:49;11.87;;;5.20;;
51987;SDS011;38003;52.012;4.346;2023-07-02T07:19:17;13.37;;;5.00;;
51987;SDS011;38003;52.012;4.346;2023-07-02T07:21:47;14.27;;;4.90;;
51987;SDS011;38003;52.012;4.346;2023-07-02T07:24:15;10.97;;;5.13;;
51987;SDS011;38003;52.012;4.346;2023-07-02T07:26:43;12.50;;;5.00;;
51987;SDS011;38003;52.012;4.346;2023-07-02T07:29:12;12.00;;;4.77;;
51987;SDS011;38003;52.012;4.346;2023-07-02T07:31:40;13.33;;;5.40;;
51987;SDS011;38003;52.012;4.346;2023-07-02T07:34:09;11.53;;;4.67;;
51987;SDS011;38003;52.012;4.346;2023-07-02T07:36:38;11.60;;;5.10;;
51987;SDS011;38003;52.012;4.346;2023-07-02T07:39:07;9.73;;;4.10;;
51987;SDS011;38003;52.012;4.346;2023-07-02T07:41:35;10.30;;;4.80;;
51987;SDS011;38003;52.012;4.346;2023-07-02T07:44:04;11.77;;;4.77;;
51987;SDS011;38003;52.012;4.346;2023-07-02T07:46:32;14.90;;;4.73;;
51987;SDS011;38003;52.012;4.346;2023-07-02T07:49:00;9.90;;;4.43;;
51987;SDS011;38003;52.012;4.346;2023-07-02T07:51:29;14.20;;;4.70;;
51987;SDS011;38003;52.012;4.346;2023-07-02T07:53:57;13.23;;;5.07;;
51987;SDS011;38003;52.012;4.346;2023-07-02T07:56:26;8.77;;;4.80;;
51987;SDS011;38003;52.012;4.346;2023-07-02T07:58:55;12.73;;;4.50;;
51987;SDS011;38003;52.012;4.346;2023-07-02T08:01:25;11.03;;;4.27;;
51987;SDS011;38003;52.012;4.346;2023-07-02T08:03:54;11.63;;;4.80;;
51987;SDS011;38003;52.012;4.346;2023-07-02T08:06:23;13.70;;;4.77;;
51987;SDS011;38003;52.012;4.346;2023-07-02T08:08:51;10.00;;;4.37;;
51987;SDS011;38003;52.012;4.346;2023-07-02T08:11:19;9.30;;;4.17;;
51987;SDS011;38003;52.012;4.346;2023-07-02T08:13:48;13.60;;;4.73;;
51987;SDS011;38003;52.012;4.346;2023-07-02T08:16:20;10.30;;;4.33;;
51987;SDS011;38003;52.012;4.346;2023-07-02T08:18:48;13.07;;;5.33;;
51987;SDS011;38003;52.012;4.346;2023-07-02T08:21:16;13.07;;;4.50;;
51987;SDS011;38003;52.012;4.346;2023-07-02T08:23:45;11.40;;;4.43;;
51987;SDS011;38003;52.012;4.346;2023-07-02T08:26:13;10.57;;;4.60;;
51987;SDS011;38003;52.012;4.346;2023-07-02T08:28:41;11.23;;;4.60;;
51987;SDS011;38003;52.012;4.346;2023-07-02T08:31:11;11.23;;;5.27;;
51987;SDS011;38003;52.012;4.346;2023-07-02T08:33:39;15.57;;;5.67;;
51987;SDS011;38003;52.012;4.346;2023-07-02T08:36:07;14.67;;;5.47;;
51987;SDS011;38003;52.012;4.346;2023-07-02T08:38:35;12.33;;;4.97;;
51987;SDS011;38003;52.012;4.346;2023-07-02T08:41:05;12.30;;;4.93;;
51987;SDS011;38003;52.012;4.346;2023-07-02T08:43:34;13.13;;;4.57;;
51987;SDS011;38003;52.012;4.346;2023-07-02T08:46:03;10.23;;;4.20;;
51987;SDS011;38003;52.012;4.346;2023-07-02T08:48:35;8.73;;;3.90;;
51987;SDS011;38003;52.012;4.346;2023-07-02T08:51:03;11.03;;;4.00;;
51987;SDS011;38003;52.012;4.346;2023-07-02T08:53:31;11.23;;;4.03;;
51987;SDS011;38003;52.012;4.346;2023-07-02T08:56:00;9.50;;;4.30;;
51987;SDS011;38003;52.012;4.346;2023-07-02T08:58:28;9.83;;;4.73;;
51987;SDS011;38003;52.012;4.346;2023-07-02T09:01:06;11.20;;;4.77;;
51987;SDS011;38003;52.012;4.346;2023-07-02T09:03:36;9.77;;;3.80;;
51987;SDS011;38003;52.012;4.346;2023-07-02T09:06:05;8.20;;;3.43;;
51987;SDS011;38003;52.012;4.346;2023-07-02T09:08:33;10.20;;;3.90;;
51987;SDS011;38003;52.012;4.346;2023-07-02T09:11:05;8.67;;;3.60;;
51987;SDS011;38003;52.012;4.346;2023-07-02T09:13:46;8.47;;;4.50;;
51987;SDS011;38003;52.012;4.346;2023-07-02T09:16:24;11.20;;;3.87;;
51987;SDS011;38003;52.012;4.346;2023-07-02T09:19:00;11.10;;;4.10;;
51987;SDS011;38003;52.012;4.346;2023-07-02T09:21:37;10.23;;;4.30;;
51987;SDS011;38003;52.012;4.346;2023-07-02T09:24:15;9.30;;;4.03;;
51987;SDS011;38003;52.012;4.346;2023-07-02T09:26:45;10.30;;;3.70;;
51987;SDS011;38003;52.012;4.346;2023-07-02T09:29:17;12.90;;;4.07;;
51987;SDS011;38003;52.012;4.346;2023-07-02T09:31:46;10.27;;;3.80;;
51987;SDS011;38003;52.012;4.346;2023-07-02T09:34:37;10.73;;;4.67;;
51987;SDS011;38003;52.012;4.346;2023-07-02T09:37:08;10.97;;;4.17;;
51987;SDS011;38003;52.012;4.346;2023-07-02T09:39:36;7.23;;;3.70;;
51987;SDS011;38003;52.012;4.346;2023-07-02T09:42:06;6.93;;;3.17;;
51987;SDS011;38003;52.012;4.346;2023-07-02T09:44:35;10.13;;;3.63;;
51987;SDS011;38003;52.012;4.346;2023-07-02T09:47:05;7.87;;;3.37;;
51987;SDS011;38003;52.012;4.346;2023-07-02T09:49:34;7.07;;;3.23;;
51987;SDS011;38003;52.012;4.346;2023-07-02T09:52:04;9.70;;;3.70;;
51987;SDS011;38003;52.012;4.346;2023-07-02T09:54:32;7.40;;;3.17;;
51987;SDS011;38003;52.012;4.346;2023-07-02T09:57:01;14.10;;;3.50;;
51987;SDS011;38003;52.012;4.346;2023-07-02T09:59:29;9.27;;;3.60;;
51987;SDS011;38003;52.012;4.346;2023-07-02T10:01:58;8.27;;;3.43;;
51987;SDS011;38003;52.012;4.346;2023-07-02T10:04:26;6.63;;;3.30;;
51987;SDS011;38003;52.012;4.346;2023-07-02T10:06:55;10.67;;;3.67;;
51987;SDS011;38003;52.012;4.346;2023-07-02T10:09:35;11.67;;;3.67;;
51987;SDS011;38003;52.012;4.346;2023-07-02T10:12:17;7.33;;;3.50;;
51987;SDS011;38003;52.012;4.346;2023-07-02T10:14:46;8.80;;;3.50;;
51987;SDS011;38003;52.012;4.346;2023-07-02T10:17:24;9.20;;;3.80;;
51987;SDS011;38003;52.012;4.346;2023-07-02T10:19:54;7.07;;;3.80;;
51987;SDS011;38003;52.012;4.346;2023-07-02T10:22:22;8.10;;;3.23;;
51987;SDS011;38003;52.012;4.346;2023-07-02T10:24:52;11.80;;;3.97;;
51987;SDS011;38003;52.012;4.346;2023-07-02T10:27:32;5.37;;;3.33;;
51987;SDS011;38003;52.012;4.346;2023-07-02T10:30:01;7.30;;;3.43;;
51987;SDS011;38003;52.012;4.346;2023-07-02T10:32:31;7.43;;;3.33;;
51987;SDS011;38003;52.012;4.346;2023-07-02T10:35:00;10.07;;;4.37;;
51987;SDS011;38003;52.012;4.346;2023-07-02T10:37:36;9.07;;;3.80;;
51987;SDS011;38003;52.012;4.346;2023-07-02T10:40:07;9.93;;;3.93;;
51987;SDS011;38003;52.012;4.346;2023-07-02T10:42:46;7.80;;;3.80;;
51987;SDS011;38003;52.012;4.346;2023-07-02T10:45:15;9.87;;;3.70;;
51987;SDS011;38003;52.012;4.346;2023-07-02T10:47:43;10.80;;;4.07;;
51987;SDS011;38003;52.012;4.346;2023-07-02T10:50:15;7.40;;;4.20;;
51987;SDS011;38003;52.012;4.346;2023-07-02T10:52:44;8.53;;;3.77;;
51987;SDS011;38003;52.012;4.346;2023-07-02T10:55:17;10.10;;;3.93;;
51987;SDS011;38003;52.012;4.346;2023-07-02T10:57:45;7.80;;;4.07;;
51987;SDS011;38003;52.012;4.346;2023-07-02T11:00:14;7.93;;;4.40;;
51987;SDS011;38003;52.012;4.346;2023-07-02T11:02:42;6.60;;;3.90;;
51987;SDS011;38003;52.012;4.346;2023-07-02T11:05:11;7.80;;;3.67;;
51987;SDS011;38003;52.012;4.346;2023-07-02T11:07:40;6.80;;;3.90;;
51987;SDS011;38003;52.012;4.346;2023-07-02T11:10:08;6.93;;;3.97;;
51987;SDS011;38003;52.012;4.346;2023-07-02T11:12:39;12.23;;;4.77;;
51987;SDS011;38003;52.012;4.346;2023-07-02T11:15:07;10.83;;;4.57;;
51987;SDS011;38003;52.012;4.346;2023-07-02T11:17:35;8.90;;;4.23;;
51987;SDS011;38003;52.012;4.346;2023-07-02T11:20:04;8.40;;;4.37;;
51987;SDS011;38003;52.012;4.346;2023-07-02T11:22:33;9.47;;;4.83;;
51987;SDS011;38003;52.012;4.346;2023-07-02T11:25:11;8.23;;;5.57;;
51987;SDS011;38003;52.012;4.346;2023-07-02T11:27:41;6.15;;;4.35;;
51987;SDS011;38003;52.012;4.346;2023-07-02T11:30:09;9.75;;;4.57;;
51987;SDS011;38003;52.012;4.346;2023-07-02T11:32:48;7.75;;;4.32;;
51987;SDS011;38003;52.012;4.346;2023-07-02T11:35:17;7.03;;;4.40;;
51987;SDS011;38003;52.012;4.346;2023-07-02T11:37:45;7.03;;;4.30;;
51987;SDS011;38003;52.012;4.346;2023-07-02T11:40:16;9.68;;;5.07;;
51987;SDS011;38003;52.012;4.346;2023-07-02T11:42:46;7.18;;;4.75;;
51987;SDS011;38003;52.012;4.346;2023-07-02T11:45:15;6.97;;;4.53;;
51987;SDS011;38003;52.012;4.346;2023-07-02T11:47:44;10.02;;;4.70;;
51987;SDS011;38003;52.012;4.346;2023-07-02T11:50:12;11.60;;;4.75;;
51987;SDS011;38003;52.012;4.346;2023-07-02T11:52:52;7.50;;;4.40;;
51987;SDS011;38003;52.012;4.346;2023-07-02T11:55:20;11.45;;;4.15;;
51987;SDS011;38003;52.012;4.346;2023-07-02T11:57:50;8.73;;;4.60;;
51987;SDS011;38003;52.012;4.346;2023-07-02T12:00:18;7.78;;;4.30;;
51987;SDS011;38003;52.012;4.346;2023-07-02T12:02:48;8.98;;;4.30;;
51987;SDS011;38003;52.012;4.346;2023-07-02T12:05:16;10.10;;;4.72;;
51987;SDS011;38003;52.012;4.346;2023-07-02T12:07:45;9.30;;;4.30;;
51987;SDS011;38003;52.012;4.346;2023-07-02T12:10:13;8.68;;;4.45;;
51987;SDS011;38003;52.012;4.346;2023-07-02T12:12:41;9.88;;;4.25;;
51987;SDS011;38003;52.012;4.346;2023-07-02T12:15:11;9.90;;;4.93;;
51987;SDS011;38003;52.012;4.346;2023-07-02T12:17:39;8.20;;;4.65;;
51987;SDS011;38003;52.012;4.346;2023-07-02T12:20:08;8.15;;;4.32;;
51987;SDS011;38003;52.012;4.346;2023-07-02T12:22:36;9.10;;;4.47;;
51987;SDS011;38003;52.012;4.346;2023-07-02T12:25:05;8.93;;;4.32;;
51987;SDS011;38003;52.012;4.346;2023-07-02T12:27:33;9.45;;;4.80;;
51987;SDS011;38003;52.012;4.346;2023-07-02T12:30:01;9.13;;;4.47;;
51987;SDS011;38003;52.012;4.346;2023-07-02T12:32:31;8.40;;;4.68;;
51987;SDS011;38003;52.012;4.346;2023-07-02T12:34:59;9.73;;;4.78;;
51987;SDS011;38003;52.012;4.346;2023-07-02T12:37:27;7.25;;;4.15;;
51987;SDS011;38003;52.012;4.346;2023-07-02T12:39:56;10.27;;;4.93;;
51987;SDS011;38003;52.012;4.346;2023-07-02T12:42:24;7.20;;;4.47;;
51987;SDS011;38003;52.012;4.346;2023-07-02T12:44:52;9.00;;;4.32;;
51987;SDS011;38003;52.012;4.346;2023-07-02T12:47:20;10.40;;;4.40;;
51987;SDS011;38003;52.012;4.346;2023-07-02T12:49:50;8.55;;;4.82;;
51987;SDS011;38003;52.012;4.346;2023-07-02T12:52:18;8.65;;;4.22;;
51987;SDS011;38003;52.012;4.346;2023-07-02T12:54:46;7.40;;;4.15;;
51987;SDS011;38003;52.012;4.346;2023-07-02T12:57:14;8.18;;;4.47;;
51987;SDS011;38003;52.012;4.346;2023-07-02T12:59:45;9.07;;;4.70;;
51987;SDS011;38003;52.012;4.346;2023-07-02T13:02:14;8.90;;;4.65;;
51987;SDS011;38003;52.012;4.346;2023-07-02T13:04:42;6.75;;;4.55;;
51987;SDS011;38003;52.012;4.346;2023-07-02T13:07:12;8.93;;;4.63;;
51987;SDS011;38003;52.012;4.346;2023-07-02T13:09:40;9.23;;;4.50;;
51987;SDS011;38003;52.012;4.346;2023-07-02T13:12:09;9.27;;;4.13;;
51987;SDS011;38003;52.012;4.346;2023-07-02T13:14:38;6.97;;;4.00;;
51987;SDS011;38003;52.012;4.346;2023-07-02T13:17:06;6.03;;;3.53;;
51987;SDS011;38003;52.012;4.346;2023-07-02T13:19:34;9.70;;;4.43;;
51987;SDS011;38003;52.012;4.346;2023-07-02T13:22:02;6.38;;;3.90;;
51987;SDS011;38003;52.012;4.346;2023-07-02T13:24:33;8.63;;;3.72;;
51987;SDS011;38003;52.012;4.346;2023-07-02T13:27:02;5.70;;;3.75;;
51987;SDS011;38003;52.012;4.346;2023-07-02T13:29:31;7.25;;;3.95;;
51987;SDS011;38003;52.012;4.346;2023-07-02T13:31:59;8.48;;;3.72;;
51987;SDS011;38003;52.012;4.346;2023-07-02T13:34:28;8.02;;;3.53;;
51987;SDS011;38003;52.012;4.346;2023-07-02T13:36:56;6.70;;;4.07;;
51987;SDS011;38003;52.012;4.346;2023-07-02T13:39:24;7.43;;;3.60;;
51987;SDS011;38003;52.012;4.346;2023-07-02T13:41:54;6.18;;;3.58;;
51987;SDS011;38003;52.012;4.346;2023-07-02T13:44:22;6.13;;;3.45;;
51987;SDS011;38003;52.012;4.346;2023-07-02T13:46:50;5.80;;;3.35;;
51987;SDS011;38003;52.012;4.346;2023-07-02T13:49:19;9.10;;;4.03;;
51987;SDS011;38003;52.012;4.346;2023-07-02T13:51:47;6.05;;;3.85;;
51987;SDS011;38003;52.012;4.346;2023-07-02T13:54:17;7.93;;;3.80;;
51987;SDS011;38003;52.012;4.346;2023-07-02T13:56:46;6.30;;;3.40;;
51987;SDS011;38003;52.012;4.346;2023-07-02T13:59:17;4.97;;;3.20;;
51987;SDS011;38003;52.012;4.346;2023-07-02T14:01:46;9.18;;;3.55;;
51987;SDS011;38003;52.012;4.346;2023-07-02T14:04:15;8.13;;;3.90;;
51987;SDS011;38003;52.012;4.346;2023-07-02T14:06:43;7.28;;;3.30;;
51987;SDS011;38003;52.012;4.346;2023-07-02T14:09:12;7.80;;;3.97;;
51987;SDS011;38003;52.012;4.346;2023-07-02T14:11:40;7.95;;;4.22;;
51987;SDS011;38003;52.012;4.346;2023-07-02T14:14:09;7.90;;;4.20;;
51987;SDS011;38003;52.012;4.346;2023-07-02T14:16:39;8.88;;;3.55;;
51987;SDS011;38003;52.012;4.346;2023-07-02T14:19:08;6.10;;;3.45;;
51987;SDS011;38003;52.012;4.346;2023-07-02T14:21:36;7.28;;;3.90;;
51987;SDS011;38003;52.012;4.346;2023-07-02T14:24:04;7.05;;;3.72;;
51987;SDS011;38003;52.012;4.346;2023-07-02T14:26:33;7.35;;;4.18;;
51987;SDS011;38003;52.012;4.346;2023-07-02T14:29:01;10.27;;;4.30;;
51987;SDS011;38003;52.012;4.346;2023-07-02T14:31:29;7.43;;;4.00;;
51987;SDS011;38003;52.012;4.346;2023-07-02T14:33:59;7.70;;;4.03;;
51987;SDS011;38003;52.012;4.346;2023-07-02T14:36:27;8.65;;;4.45;;
51987;SDS011;38003;52.012;4.346;2023-07-02T14:38:55;10.18;;;4.70;;
51987;SDS011;38003;52.012;4.346;2023-07-02T14:41:24;9.55;;;4.13;;
51987;SDS011;38003;52.012;4.346;2023-07-02T14:43:53;7.57;;;4.53;;
51987;SDS011;38003;52.012;4.346;2023-07-02T14:46:21;8.80;;;4.28;;
51987;SDS011;38003;52.012;4.346;2023-07-02T14:48:49;8.73;;;4.28;;